createdAt,value
2022-11-30T00:01:22.633Z,100.00
2022-11-30T00:03:54.050Z,100.00
2022-11-30T00:06:23.542Z,100.00
2022-11-30T00:08:55.659Z,100.00
2022-11-30T00:11:23.807Z,100.00
2022-11-30T00:13:51.290Z,100.00
2022-11-30T00:16:19.031Z,100.00
2022-11-30T00:18:46.909Z,100.00
2022-11-30T00:21:17.181Z,100.00
2022-11-30T00:23:46.009Z,100.00
2022-11-30T00:26:18.688Z,100.00
2022-11-30T00:28:46.748Z,100.00
2022-11-30T00:31:16.308Z,100.00
2022-11-30T00:33:43.795Z,100.00
2022-11-30T00:36:14.137Z,100.00
2022-11-30T00:38:41.831Z,100.00
2022-11-30T00:41:09.247Z,100.00
2022-11-30T00:43:36.886Z,100.00
2022-11-30T00:46:04.784Z,100.00
2022-11-30T00:48:32.534Z,100.00
2022-11-30T00:50:59.931Z,100.00
2022-11-30T00:53:27.313Z,100.00
2022-11-30T00:55:55.106Z,100.00
2022-11-30T00:58:22.525Z,100.00
2022-11-30T01:00:49.985Z,100.00
2022-11-30T01:03:17.316Z,100.00
2022-11-30T01:05:44.680Z,100.00
2022-11-30T01:08:13.043Z,100.00
2022-11-30T01:10:42.910Z,100.00
2022-11-30T01:13:12.756Z,100.00
2022-11-30T01:15:44.272Z,100.00
2022-11-30T01:18:12.149Z,100.00
2022-11-30T01:20:43.446Z,100.00
2022-11-30T01:23:11.527Z,100.00
2022-11-30T01:25:39.752Z,100.00
2022-11-30T01:28:07.149Z,100.00
2022-11-30T01:30:34.560Z,100.00
2022-11-30T01:33:03.480Z,100.00
2022-11-30T01:35:30.872Z,100.00
2022-11-30T01:37:58.171Z,100.00
2022-11-30T01:40:25.599Z,100.00
2022-11-30T01:42:52.952Z,100.00
2022-11-30T01:45:20.314Z,100.00
2022-11-30T01:47:51.565Z,100.00
2022-11-30T01:50:35.408Z,100.00
2022-11-30T01:53:05.448Z,100.00
2022-11-30T01:55:37.810Z,100.00
2022-11-30T01:58:12.257Z,100.00
2022-11-30T02:00:44.182Z,100.00
2022-11-30T02:03:20.179Z,100.00
2022-11-30T02:05:48.751Z,100.00
2022-11-30T02:08:17.351Z,100.00
2022-11-30T02:10:52.461Z,100.00
2022-11-30T02:13:57.053Z,100.00
2022-11-30T02:16:35.621Z,100.00
2022-11-30T02:19:14.773Z,100.00
2022-11-30T02:21:56.156Z,100.00
2022-11-30T02:24:56.463Z,100.00
2022-11-30T02:27:30.735Z,100.00
2022-11-30T02:30:03.678Z,100.00
2022-11-30T02:32:42.193Z,100.00
2022-11-30T02:35:12.074Z,100.00
2022-11-30T02:37:40.026Z,100.00
2022-11-30T02:40:15.681Z,100.00
2022-11-30T02:42:43.097Z,100.00
2022-11-30T02:45:11.391Z,100.00
2022-11-30T02:47:48.535Z,100.00
2022-11-30T02:50:21.193Z,100.00
2022-11-30T02:52:52.151Z,100.00
2022-11-30T02:55:20.371Z,100.00
2022-11-30T02:57:47.917Z,100.00
2022-11-30T03:00:16.039Z,100.00
2022-11-30T03:02:43.449Z,100.00
2022-11-30T03:05:10.857Z,100.00
2022-11-30T03:07:38.395Z,100.00
2022-11-30T03:10:06.590Z,100.00
2022-11-30T03:12:34.062Z,100.00
2022-11-30T03:15:01.712Z,100.00
2022-11-30T03:17:29.114Z,100.00
2022-11-30T03:19:56.500Z,100.00
2022-11-30T03:22:24.172Z,100.00
2022-11-30T03:24:51.527Z,100.00
2022-11-30T03:27:19.093Z,100.00
2022-11-30T03:29:46.380Z,100.00
2022-11-30T03:32:13.843Z,100.00
2022-11-30T03:34:41.555Z,100.00
2022-11-30T03:37:08.932Z,100.00
2022-11-30T03:39:36.335Z,100.00
2022-11-30T03:42:03.944Z,100.00
2022-11-30T03:44:31.392Z,100.00
2022-11-30T03:46:58.719Z,100.00
2022-11-30T03:49:26.012Z,100.00
2022-11-30T03:51:53.534Z,100.00
2022-11-30T03:54:22.526Z,100.00
2022-11-30T03:56:49.911Z,100.00
2022-11-30T03:59:17.223Z,100.00
2022-11-30T04:01:44.675Z,100.00
2022-11-30T04:04:12.458Z,100.00
2022-11-30T04:06:40.722Z,100.00
2022-11-30T04:09:09.436Z,100.00
2022-11-30T04:11:36.962Z,100.00
2022-11-30T04:14:04.419Z,100.00
2022-11-30T04:16:32.171Z,100.00
2022-11-30T04:19:00.077Z,100.00
2022-11-30T04:21:27.444Z,100.00
2022-11-30T04:23:54.769Z,100.00
2022-11-30T04:26:22.195Z,100.00
2022-11-30T04:28:49.599Z,100.00
2022-11-30T04:31:17.059Z,100.00
2022-11-30T04:33:44.546Z,100.00
2022-11-30T04:36:20.265Z,100.00
2022-11-30T04:38:49.295Z,100.00
2022-11-30T04:41:19.442Z,100.00
2022-11-30T04:43:47.872Z,100.00
2022-11-30T04:46:15.424Z,100.00
2022-11-30T04:48:42.869Z,100.00
2022-11-30T04:51:10.279Z,100.00
2022-11-30T04:53:38.820Z,100.00
2022-11-30T04:56:08.328Z,100.00
2022-11-30T04:58:36.474Z,100.00
2022-11-30T05:01:03.985Z,100.00
2022-11-30T05:03:31.329Z,100.00
2022-11-30T05:05:58.653Z,100.00
2022-11-30T05:08:26.395Z,100.00
2022-11-30T05:10:55.619Z,100.00
2022-11-30T05:13:24.868Z,100.00
2022-11-30T05:15:53.920Z,100.00
2022-11-30T05:18:22.159Z,100.00
2022-11-30T05:20:51.361Z,100.00
2022-11-30T05:23:19.668Z,100.00
2022-11-30T05:25:47.917Z,100.00
2022-11-30T05:28:15.473Z,100.00
2022-11-30T05:30:43.834Z,100.00
2022-11-30T05:33:13.959Z,100.00
2022-11-30T05:35:44.093Z,100.00
2022-11-30T05:38:11.574Z,100.00
2022-11-30T05:40:38.920Z,100.00
2022-11-30T05:43:06.545Z,99.11
2022-11-30T05:45:33.920Z,98.86
2022-11-30T05:48:01.443Z,100.00
2022-11-30T05:50:28.957Z,100.00
2022-11-30T05:52:56.676Z,99.43
2022-11-30T05:55:24.975Z,99.21
2022-11-30T05:57:52.536Z,98.27
2022-11-30T06:00:21.704Z,98.16
2022-11-30T06:02:56.354Z,98.71
2022-11-30T06:05:24.638Z,98.75
2022-11-30T06:07:52.078Z,98.82
2022-11-30T06:10:20.159Z,98.84
2022-11-30T06:12:48.685Z,97.55
2022-11-30T06:15:16.153Z,96.47
2022-11-30T06:17:43.436Z,95.95
2022-11-30T06:20:11.108Z,96.37
2022-11-30T06:22:38.415Z,95.54
2022-11-30T06:25:05.955Z,95.96
2022-11-30T06:27:33.572Z,95.83
2022-11-30T06:30:01.599Z,96.35
2022-11-30T06:32:28.963Z,96.38
2022-11-30T06:34:56.299Z,96.17
2022-11-30T06:37:23.661Z,96.03
2022-11-30T06:40:09.482Z,96.07
2022-11-30T06:42:38.077Z,97.61
2022-11-30T06:45:07.136Z,98.29
2022-11-30T06:47:34.627Z,98.09
2022-11-30T06:50:02.153Z,98.76
2022-11-30T06:52:32.441Z,98.70
2022-11-30T06:54:59.825Z,98.17
2022-11-30T06:57:28.859Z,97.55
2022-11-30T06:59:56.974Z,97.71
2022-11-30T07:02:24.432Z,99.60
2022-11-30T07:04:51.955Z,99.10
2022-11-30T07:07:19.430Z,98.68
2022-11-30T07:09:46.982Z,99.48
2022-11-30T07:12:14.299Z,98.26
2022-11-30T07:14:41.692Z,98.89
2022-11-30T07:17:09.021Z,99.47
2022-11-30T07:19:36.378Z,98.93
2022-11-30T07:22:03.965Z,98.14
2022-11-30T07:24:49.792Z,97.70
2022-11-30T07:27:19.176Z,98.84
2022-11-30T07:29:48.954Z,98.02
2022-11-30T07:32:16.297Z,99.05
2022-11-30T07:34:43.676Z,100.00
2022-11-30T07:37:11.466Z,99.98
2022-11-30T07:39:38.885Z,99.88
2022-11-30T07:42:06.201Z,99.89
2022-11-30T07:44:33.595Z,98.04
2022-11-30T07:47:01.169Z,97.28
2022-11-30T07:49:28.624Z,99.05
2022-11-30T07:51:56.005Z,99.92
2022-11-30T07:54:25.723Z,99.13
2022-11-30T07:56:53.080Z,98.55
2022-11-30T07:59:20.485Z,97.37
2022-11-30T08:01:47.936Z,97.38
2022-11-30T08:04:15.466Z,97.46
2022-11-30T08:06:42.998Z,98.05
2022-11-30T08:09:19.218Z,97.55
2022-11-30T08:11:49.247Z,97.24
2022-11-30T08:14:16.623Z,96.77
2022-11-30T08:16:44.593Z,97.79
2022-11-30T08:19:12.022Z,97.82
2022-11-30T08:21:42.407Z,97.81
2022-11-30T08:24:13.133Z,97.73
2022-11-30T08:26:40.564Z,98.31
2022-11-30T08:29:11.260Z,96.64
2022-11-30T08:31:39.105Z,95.09
2022-11-30T08:34:10.645Z,95.03
2022-11-30T08:36:39.753Z,94.48
2022-11-30T08:39:09.065Z,93.26
2022-11-30T08:41:36.815Z,93.88
2022-11-30T08:44:04.349Z,95.27
2022-11-30T08:46:50.993Z,96.95
2022-11-30T08:49:23.121Z,95.08
2022-11-30T08:52:16.538Z,94.72
2022-11-30T08:54:45.234Z,91.33
2022-11-30T08:57:13.278Z,91.66
2022-11-30T08:59:40.689Z,91.52
2022-11-30T09:02:10.894Z,88.85
2022-11-30T09:04:38.264Z,87.33
2022-11-30T09:07:06.061Z,87.32
2022-11-30T09:09:33.434Z,87.84
2022-11-30T09:12:00.853Z,86.57
2022-11-30T09:14:28.213Z,82.89
2022-11-30T09:16:55.569Z,82.82
2022-11-30T09:19:25.708Z,82.78
2022-11-30T09:21:53.220Z,80.96
2022-11-30T09:24:21.085Z,80.38
2022-11-30T09:26:48.575Z,79.34
2022-11-30T09:29:16.226Z,79.68
2022-11-30T09:31:43.685Z,80.65
2022-11-30T09:34:12.195Z,80.57
2022-11-30T09:36:40.052Z,79.85
2022-11-30T09:39:10.708Z,79.35
2022-11-30T09:42:08.277Z,80.22
2022-11-30T09:45:02.325Z,77.85
2022-11-30T09:48:12.189Z,78.10
2022-11-30T09:50:44.713Z,76.50
2022-11-30T09:53:23.259Z,76.94
2022-11-30T09:55:56.733Z,71.45
2022-11-30T09:58:45.447Z,72.56
2022-11-30T10:01:21.124Z,74.16
2022-11-30T10:03:48.705Z,71.20
2022-11-30T10:06:26.320Z,68.52
2022-11-30T10:08:56.270Z,68.93
2022-11-30T10:11:23.598Z,66.32
2022-11-30T10:13:50.909Z,67.09
2022-11-30T10:16:43.142Z,66.64
2022-11-30T10:19:16.267Z,64.68
2022-11-30T10:21:50.533Z,60.88
2022-11-30T10:24:23.946Z,61.77
2022-11-30T10:26:56.368Z,64.77
2022-11-30T10:29:42.727Z,65.60
2022-11-30T10:32:31.481Z,64.25
2022-11-30T10:35:13.254Z,65.88
2022-11-30T10:37:42.489Z,67.38
2022-11-30T10:40:29.506Z,67.05
2022-11-30T10:43:23.248Z,59.80
2022-11-30T10:45:51.394Z,54.12
2022-11-30T10:48:40.708Z,56.42
2022-11-30T10:51:10.756Z,55.30
2022-11-30T10:53:38.525Z,56.41
2022-11-30T10:56:12.166Z,54.74
2022-11-30T10:58:55.431Z,55.88
2022-11-30T11:01:35.002Z,55.84
2022-11-30T11:04:17.901Z,56.11
2022-11-30T11:06:55.292Z,54.54
2022-11-30T11:09:49.074Z,54.33
2022-11-30T11:12:25.704Z,55.21
2022-11-30T11:15:09.923Z,56.21
2022-11-30T11:17:37.340Z,55.76
2022-11-30T11:20:38.242Z,56.09
2022-11-30T11:23:06.268Z,54.30
2022-11-30T11:25:37.464Z,53.29
2022-11-30T11:28:19.560Z,54.56
2022-11-30T11:30:48.203Z,55.12
2022-11-30T11:33:15.420Z,54.17
2022-11-30T11:36:16.916Z,52.89
2022-11-30T11:38:48.456Z,53.54
2022-11-30T11:41:21.426Z,52.91
2022-11-30T11:44:21.272Z,54.48
2022-11-30T11:47:02.931Z,53.82
2022-11-30T11:49:34.479Z,53.61
2022-11-30T11:52:09.251Z,52.20
2022-11-30T11:54:49.806Z,52.17
2022-11-30T11:57:21.205Z,52.72
2022-11-30T12:00:00.576Z,52.13
2022-11-30T12:02:45.580Z,52.91
2022-11-30T12:05:20.321Z,53.35
2022-11-30T12:08:04.513Z,52.71
2022-11-30T12:10:53.271Z,53.51
2022-11-30T12:13:27.198Z,54.21
2022-11-30T12:16:11.795Z,53.43
2022-11-30T12:18:57.691Z,53.42
2022-11-30T12:22:02.511Z,53.64
2022-11-30T12:24:52.431Z,54.21
2022-11-30T12:27:53.642Z,53.75
2022-11-30T12:30:47.888Z,54.20
2022-11-30T12:33:43.773Z,53.78
2022-11-30T12:36:25.659Z,53.80
2022-11-30T12:39:05.759Z,54.24
2022-11-30T12:41:49.279Z,54.55
2022-11-30T12:44:53.806Z,55.60
2022-11-30T12:47:30.613Z,55.06
2022-11-30T12:50:22.297Z,55.63
2022-11-30T12:53:21.881Z,55.03
2022-11-30T12:56:26.174Z,56.32
2022-11-30T12:59:07.148Z,57.80
2022-11-30T13:01:53.447Z,55.85
2022-11-30T13:04:28.417Z,55.11
2022-11-30T13:07:05.981Z,54.27
2022-11-30T13:09:36.990Z,55.67
2022-11-30T13:12:36.298Z,56.40
2022-11-30T13:15:20.109Z,55.15
2022-11-30T13:17:49.848Z,54.92
2022-11-30T13:20:31.443Z,56.98
2022-11-30T13:23:37.101Z,55.87
2022-11-30T13:26:29.602Z,56.67
2022-11-30T13:29:18.598Z,56.42
2022-11-30T13:31:57.289Z,54.74
2022-11-30T13:34:29.565Z,54.28
2022-11-30T13:37:06.197Z,55.12
2022-11-30T13:39:50.704Z,55.79
2022-11-30T13:42:36.388Z,57.27
2022-11-30T13:45:12.793Z,60.18
2022-11-30T13:47:51.387Z,61.09
2022-11-30T13:50:28.496Z,61.04
2022-11-30T13:52:58.993Z,60.44
2022-11-30T13:55:41.561Z,59.83
2022-11-30T13:58:12.941Z,61.25
2022-11-30T14:00:40.726Z,63.97
2022-11-30T14:03:25.014Z,67.14
2022-11-30T14:05:53.264Z,68.19
2022-11-30T14:08:23.508Z,69.58
2022-11-30T14:10:52.881Z,69.56
2022-11-30T14:13:22.642Z,69.77
2022-11-30T14:15:50.006Z,70.62
2022-11-30T14:18:20.152Z,69.54
2022-11-30T14:20:50.598Z,71.47
2022-11-30T14:23:43.030Z,72.50
2022-11-30T14:26:15.685Z,72.88
2022-11-30T14:28:47.065Z,72.49
2022-11-30T14:31:23.140Z,72.80
2022-11-30T14:33:55.658Z,72.99
2022-11-30T14:36:27.491Z,73.27
2022-11-30T14:38:54.924Z,74.04
2022-11-30T14:41:28.163Z,73.99
2022-11-30T14:44:02.673Z,73.88
2022-11-30T14:46:36.112Z,73.96
2022-11-30T14:49:12.457Z,73.77
2022-11-30T14:51:42.369Z,74.43
2022-11-30T14:54:19.329Z,74.28
2022-11-30T14:56:50.234Z,74.36
2022-11-30T14:59:45.982Z,75.51
2022-11-30T15:02:24.313Z,75.81
2022-11-30T15:04:54.382Z,76.21
2022-11-30T15:07:23.078Z,76.71
2022-11-30T15:09:54.812Z,76.51
2022-11-30T15:12:24.807Z,76.48
2022-11-30T15:15:09.091Z,76.91
2022-11-30T15:17:51.213Z,76.38
2022-11-30T15:20:20.769Z,76.89
2022-11-30T15:22:48.328Z,77.23
2022-11-30T15:25:15.898Z,76.30
2022-11-30T15:27:43.621Z,76.49
2022-11-30T15:30:16.770Z,76.65
2022-11-30T15:32:46.777Z,77.22
2022-11-30T15:35:24.083Z,75.89
2022-11-30T15:37:53.552Z,75.87
2022-11-30T15:40:35.808Z,76.67
2022-11-30T15:43:03.326Z,76.16
2022-11-30T15:45:33.140Z,75.92
2022-11-30T15:48:01.174Z,76.79
2022-11-30T15:50:28.582Z,76.99
2022-11-30T15:52:59.086Z,77.04
2022-11-30T15:55:50.000Z,77.35
2022-11-30T15:58:45.705Z,77.22
2022-11-30T16:01:25.074Z,77.38
2022-11-30T16:03:55.286Z,77.96
2022-11-30T16:06:28.088Z,77.33
2022-11-30T16:08:58.393Z,78.08
2022-11-30T16:11:25.907Z,78.52
2022-11-30T16:13:53.361Z,78.98
2022-11-30T16:16:30.938Z,78.83
2022-11-30T16:18:58.273Z,79.34
2022-11-30T16:21:25.621Z,79.23
2022-11-30T16:23:53.119Z,79.00
2022-11-30T16:26:49.592Z,79.08
2022-11-30T16:29:10.561Z,78.93
2022-11-30T16:31:38.855Z,79.41
2022-11-30T16:34:08.722Z,79.70
2022-11-30T16:36:38.163Z,80.01
2022-11-30T16:39:05.968Z,79.77
2022-11-30T16:41:34.954Z,79.69
2022-11-30T16:44:08.686Z,79.14
2022-11-30T16:46:36.498Z,79.53
2022-11-30T16:49:03.909Z,79.96
2022-11-30T16:51:34.617Z,80.44
2022-11-30T16:54:03.116Z,80.41
2022-11-30T16:56:30.492Z,80.91
2022-11-30T16:58:58.613Z,81.63
2022-11-30T17:01:43.188Z,82.08
2022-11-30T17:04:20.066Z,81.73
2022-11-30T17:06:50.619Z,82.21
2022-11-30T17:09:20.550Z,81.48
2022-11-30T17:11:52.779Z,81.25
2022-11-30T17:14:21.299Z,80.68
2022-11-30T17:16:48.677Z,81.04
2022-11-30T17:19:16.094Z,81.04
2022-11-30T17:21:44.805Z,81.20
2022-11-30T17:24:13.013Z,80.43
2022-11-30T17:26:40.699Z,80.27
2022-11-30T17:29:08.196Z,80.39
2022-11-30T17:31:35.729Z,79.99
2022-11-30T17:34:03.081Z,80.79
2022-11-30T17:36:30.453Z,82.30
2022-11-30T17:38:57.863Z,81.63
2022-11-30T17:41:25.199Z,81.96
2022-11-30T17:43:54.929Z,81.50
2022-11-30T17:46:22.675Z,82.21
2022-11-30T17:48:50.689Z,81.96
2022-11-30T17:51:18.100Z,81.83
2022-11-30T17:53:45.446Z,82.36
2022-11-30T17:56:15.526Z,82.78
2022-11-30T17:58:46.933Z,82.76
2022-11-30T18:01:26.171Z,82.68
2022-11-30T18:03:55.323Z,84.18
2022-11-30T18:06:22.932Z,83.63
2022-11-30T18:08:50.270Z,83.60
2022-11-30T18:11:23.361Z,83.06
2022-11-30T18:13:53.652Z,83.84
2022-11-30T18:16:26.816Z,83.38
2022-11-30T18:18:56.669Z,82.98
2022-11-30T18:21:26.172Z,83.84
2022-11-30T18:23:56.113Z,84.06
2022-11-30T18:26:25.049Z,83.36
2022-11-30T18:28:54.413Z,83.83
2022-11-30T18:31:22.162Z,86.27
2022-11-30T18:33:55.450Z,86.36
2022-11-30T18:36:23.239Z,85.60
2022-11-30T18:38:50.832Z,85.37
2022-11-30T18:41:18.338Z,87.38
2022-11-30T18:43:45.645Z,86.29
2022-11-30T18:46:13.818Z,84.56
2022-11-30T18:48:41.864Z,84.69
2022-11-30T18:51:18.070Z,84.57
2022-11-30T18:53:45.443Z,85.93
2022-11-30T18:56:18.594Z,85.99
2022-11-30T18:58:47.053Z,85.67
2022-11-30T19:01:20.026Z,83.59
2022-11-30T19:04:02.958Z,83.23
2022-11-30T19:06:32.689Z,83.41
2022-11-30T19:09:08.317Z,83.38
2022-11-30T19:11:37.134Z,83.36
2022-11-30T19:14:07.924Z,82.86
2022-11-30T19:16:35.867Z,83.48
2022-11-30T19:19:06.042Z,84.19
2022-11-30T19:21:33.805Z,85.91
2022-11-30T19:24:01.706Z,85.21
2022-11-30T19:26:32.278Z,85.41
2022-11-30T19:28:59.764Z,85.81
2022-11-30T19:31:27.400Z,84.99
2022-11-30T19:33:55.879Z,86.12
2022-11-30T19:36:26.736Z,87.02
2022-11-30T19:38:55.227Z,87.84
2022-11-30T19:41:22.835Z,88.31
2022-11-30T19:44:04.048Z,88.85
2022-11-30T19:46:33.035Z,88.88
2022-11-30T19:49:02.529Z,88.76
2022-11-30T19:51:31.010Z,88.62
2022-11-30T19:54:01.735Z,88.47
2022-11-30T19:56:31.412Z,88.83
2022-11-30T19:59:04.560Z,89.06
2022-11-30T20:01:33.585Z,88.50
2022-11-30T20:04:01.195Z,88.25
2022-11-30T20:06:31.499Z,88.04
2022-11-30T20:08:58.936Z,87.52
2022-11-30T20:11:26.401Z,87.79
2022-11-30T20:13:54.124Z,87.80
2022-11-30T20:16:22.843Z,87.88
2022-11-30T20:19:00.800Z,87.84
2022-11-30T20:21:31.354Z,87.92
2022-11-30T20:24:00.898Z,87.50
2022-11-30T20:26:30.995Z,87.69
2022-11-30T20:29:00.235Z,87.38
2022-11-30T20:31:32.079Z,88.44
2022-11-30T20:33:59.623Z,88.82
2022-11-30T20:36:27.252Z,88.47
2022-11-30T20:38:55.096Z,89.11
2022-11-30T20:41:24.152Z,88.78
2022-11-30T20:43:52.292Z,89.46
2022-11-30T20:46:23.814Z,89.58
2022-11-30T20:48:52.878Z,89.42
2022-11-30T20:51:31.337Z,88.38
2022-11-30T20:54:05.707Z,87.35
2022-11-30T20:56:35.321Z,86.90
2022-11-30T20:59:05.953Z,87.64
2022-11-30T21:01:33.985Z,86.68
2022-11-30T21:04:01.793Z,86.96
2022-11-30T21:06:30.059Z,86.16
2022-11-30T21:08:58.540Z,85.46
2022-11-30T21:11:27.037Z,85.54
2022-11-30T21:13:54.685Z,87.24
2022-11-30T21:16:28.174Z,85.95
2022-11-30T21:19:00.963Z,85.99
2022-11-30T21:21:31.425Z,87.47
2022-11-30T21:24:00.688Z,87.36
2022-11-30T21:26:34.052Z,88.62
2022-11-30T21:29:05.506Z,88.92
2022-11-30T21:31:33.939Z,88.53
2022-11-30T21:34:02.003Z,88.70
2022-11-30T21:36:29.519Z,88.50
2022-11-30T21:39:05.078Z,88.58
2022-11-30T21:41:35.977Z,88.21
2022-11-30T21:44:05.866Z,88.43
2022-11-30T21:46:33.841Z,89.38
2022-11-30T21:49:02.004Z,88.42
2022-11-30T21:51:30.378Z,88.40
2022-11-30T21:54:03.064Z,88.91
2022-11-30T21:56:35.700Z,90.52
2022-11-30T21:59:08.898Z,90.60
2022-11-30T22:01:41.986Z,90.72
2022-11-30T22:04:11.307Z,90.15
2022-11-30T22:06:40.181Z,88.73
2022-11-30T22:09:13.913Z,87.95
2022-11-30T22:11:44.995Z,87.80
2022-11-30T22:14:16.042Z,87.42
2022-11-30T22:16:44.543Z,87.12
2022-11-30T22:19:12.000Z,87.55
2022-11-30T22:21:39.613Z,87.71
2022-11-30T22:24:10.738Z,88.30
2022-11-30T22:26:40.416Z,88.84
2022-11-30T22:29:15.490Z,88.84
2022-11-30T22:31:45.917Z,89.00
2022-11-30T22:34:14.097Z,89.22
2022-11-30T22:36:43.334Z,88.48
2022-11-30T22:39:16.830Z,90.28
2022-11-30T22:41:45.875Z,88.92
2022-11-30T22:44:15.160Z,89.72
2022-11-30T22:46:44.433Z,90.80
2022-11-30T22:49:20.672Z,90.69
2022-11-30T22:51:49.736Z,90.22
2022-11-30T22:54:18.505Z,91.06
2022-11-30T22:56:46.568Z,90.10
2022-11-30T22:59:15.997Z,89.59
2022-11-30T23:01:48.724Z,90.03
2022-11-30T23:04:18.859Z,92.41
2022-11-30T23:06:48.329Z,91.81
2022-11-30T23:09:21.706Z,91.80
2022-11-30T23:11:50.372Z,92.00
2022-11-30T23:14:18.678Z,91.73
2022-11-30T23:16:46.222Z,93.23
2022-11-30T23:19:14.423Z,92.76
2022-11-30T23:21:45.620Z,92.55
2022-11-30T23:24:20.318Z,92.73
2022-11-30T23:26:48.378Z,92.65
2022-11-30T23:29:17.516Z,92.24
2022-11-30T23:31:46.210Z,91.50
2022-11-30T23:34:19.705Z,92.42
2022-11-30T23:36:48.347Z,91.62
2022-11-30T23:39:17.657Z,89.83
2022-11-30T23:41:45.075Z,90.73
2022-11-30T23:44:12.457Z,90.97
2022-11-30T23:46:40.195Z,90.95
2022-11-30T23:49:08.346Z,90.57
2022-11-30T23:51:35.897Z,91.24
2022-11-30T23:54:03.705Z,91.99
2022-11-30T23:56:31.223Z,91.71
2022-11-30T23:58:58.782Z,94.10
